Portada
METAR-TAF:

METAR-TAF

Aeroports :

Sukhothai, Tailàndia

latitud: 17-14-16N, longitud: 099-49-05E, altitud: 55 m

Observació

L'informe es va fer fa 46 minuts, a les 08:00 UTC
Vent 2 kt amb direcció variable
Temperatura 32°C
Humitat 49%
Pressió 1010 hPa
Visibilitat 10 km o més
Escasses núvols a una alçada de 2500 ft

METAR: VTPO 020800Z VRB02KT 9999 FEW025 32/20 Q1010 NOSIG

Hora: 15:46 (08:46 UTC)

Pronòstic

L'informe es va fer fa 3 hores i 46 minuts, a les 05:00 UTC
Pronòstic vàlid del 02 a les 06 UTC al 03 a les 06 UTC
Vent 5 kt del Nord/Nord-Oest
Visibilitat 10 km o més
Escasses núvols a una alçada de 2500 ft

TAF: VTPO 020500Z 0206/0306 34005KT 9999 FEW025

Observacions i pronòstics meteorològics de més de 4000 aeroports (METAR i TAF).

Les estacions disponibles són els punts grocs i vermells al mapa.

Posi el ratolí al punt desitjat per veure el nom de l'estació.

Feu clic per veure les observacions i els pronòstics meteorològics.

Per canviar el mapa: feu clic els botons verds amb una creu de color negre per apropar; al botó verd amb un guió per allunyar la imatge; o en les fletxes verdes per a mapes adjacents.


METAR-TAF: